X  Cerrar Datos meteorológicos de aviación METAR     ENRY Moss Airport, Rygge
Temperatura
14°C Temperatura
9°C Punto de rocío
72% Humedad



Viento
5 M/S
12 MPH
19 KM/H
10 NUDO



180°
S
Condiciones actuales

Parcialmente nublado Parcialmente nublado
Presión 1006.77 (hPa) - 29.73 (inHg)
Visibilidad 6 (milla) - 9.7 (km)
Aeropuerto
Código de aeropuerto ENRY

localidad: Moss Airport, Rygge
Distancia: 12 (km)

Metar:
ENRY 121820Z AUTO 18010KT 150V210 9999 R12/P2000N R30///// FEW021/// SCT030/// BKN080/// 14/09 Q1007

Hora: 12-06-2024 20:20 CEST